sensor_id;sensor_type;location;lat;lon;timestamp;P1;durP1;ratioP1;P2;durP2;ratioP2
59607;SDS011;45426;44.726;10.390;2023-03-14T00:00:05;19.98;;;10.27;;
59607;SDS011;45426;44.726;10.390;2023-03-14T00:02:33;16.20;;;8.63;;
59607;SDS011;45426;44.726;10.390;2023-03-14T00:04:58;17.17;;;9.70;;
59607;SDS011;45426;44.726;10.390;2023-03-14T00:07:23;19.05;;;9.65;;
59607;SDS011;45426;44.726;10.390;2023-03-14T00:09:53;14.82;;;7.25;;
59607;SDS011;45426;44.726;10.390;2023-03-14T00:12:18;20.77;;;9.65;;
59607;SDS011;45426;44.726;10.390;2023-03-14T00:14:44;20.08;;;9.10;;
59607;SDS011;45426;44.726;10.390;2023-03-14T00:17:09;20.27;;;10.18;;
59607;SDS011;45426;44.726;10.390;2023-03-14T00:19:35;18.73;;;9.15;;
59607;SDS011;45426;44.726;10.390;2023-03-14T00:22:00;20.65;;;9.63;;
59607;SDS011;45426;44.726;10.390;2023-03-14T00:24:25;21.80;;;9.60;;
59607;SDS011;45426;44.726;10.390;2023-03-14T00:26:51;18.52;;;8.38;;
59607;SDS011;45426;44.726;10.390;2023-03-14T00:29:16;18.08;;;8.45;;
59607;SDS011;45426;44.726;10.390;2023-03-14T00:31:42;17.85;;;7.43;;
59607;SDS011;45426;44.726;10.390;2023-03-14T00:34:07;17.52;;;7.90;;
59607;SDS011;45426;44.726;10.390;2023-03-14T00:36:32;17.27;;;7.35;;
59607;SDS011;45426;44.726;10.390;2023-03-14T00:38:58;17.90;;;7.43;;
59607;SDS011;45426;44.726;10.390;2023-03-14T00:41:23;16.90;;;8.57;;
59607;SDS011;45426;44.726;10.390;2023-03-14T00:43:49;15.73;;;7.95;;
59607;SDS011;45426;44.726;10.390;2023-03-14T00:46:15;15.13;;;8.85;;
59607;SDS011;45426;44.726;10.390;2023-03-14T00:48:41;16.58;;;8.25;;
59607;SDS011;45426;44.726;10.390;2023-03-14T00:51:07;19.20;;;9.32;;
59607;SDS011;45426;44.726;10.390;2023-03-14T00:53:37;19.02;;;8.95;;
59607;SDS011;45426;44.726;10.390;2023-03-14T00:56:04;17.80;;;9.25;;
59607;SDS011;45426;44.726;10.390;2023-03-14T00:58:31;21.20;;;9.50;;
59607;SDS011;45426;44.726;10.390;2023-03-14T01:00:56;20.63;;;10.93;;
59607;SDS011;45426;44.726;10.390;2023-03-14T01:03:22;23.33;;;11.32;;
59607;SDS011;45426;44.726;10.390;2023-03-14T01:05:49;20.30;;;11.07;;
59607;SDS011;45426;44.726;10.390;2023-03-14T01:08:15;23.13;;;11.98;;
59607;SDS011;45426;44.726;10.390;2023-03-14T01:10:40;25.38;;;12.07;;
59607;SDS011;45426;44.726;10.390;2023-03-14T01:13:07;26.38;;;12.73;;
59607;SDS011;45426;44.726;10.390;2023-03-14T01:15:34;28.30;;;13.45;;
59607;SDS011;45426;44.726;10.390;2023-03-14T01:17:59;23.15;;;12.65;;
59607;SDS011;45426;44.726;10.390;2023-03-14T01:20:25;24.13;;;12.63;;
59607;SDS011;45426;44.726;10.390;2023-03-14T01:22:50;25.92;;;12.30;;
59607;SDS011;45426;44.726;10.390;2023-03-14T01:25:16;24.77;;;12.40;;
59607;SDS011;45426;44.726;10.390;2023-03-14T01:27:42;28.85;;;12.85;;
59607;SDS011;45426;44.726;10.390;2023-03-14T01:30:08;24.42;;;13.05;;
59607;SDS011;45426;44.726;10.390;2023-03-14T01:32:35;22.67;;;13.32;;
59607;SDS011;45426;44.726;10.390;2023-03-14T01:35:01;26.15;;;13.05;;
59607;SDS011;45426;44.726;10.390;2023-03-14T01:37:26;23.48;;;12.32;;
59607;SDS011;45426;44.726;10.390;2023-03-14T01:39:52;27.60;;;12.63;;
59607;SDS011;45426;44.726;10.390;2023-03-14T01:42:17;24.85;;;12.93;;
59607;SDS011;45426;44.726;10.390;2023-03-14T01:47:22;22.85;;;12.18;;
59607;SDS011;45426;44.726;10.390;2023-03-14T01:50:06;28.50;;;12.55;;
59607;SDS011;45426;44.726;10.390;2023-03-14T01:55:07;23.65;;;12.00;;
59607;SDS011;45426;44.726;10.390;2023-03-14T01:57:39;23.70;;;11.90;;
59607;SDS011;45426;44.726;10.390;2023-03-14T02:00:11;22.25;;;11.68;;
59607;SDS011;45426;44.726;10.390;2023-03-14T02:02:40;26.77;;;12.18;;
59607;SDS011;45426;44.726;10.390;2023-03-14T02:05:09;21.52;;;11.80;;
59607;SDS011;45426;44.726;10.390;2023-03-14T02:07:40;23.13;;;12.15;;
59607;SDS011;45426;44.726;10.390;2023-03-14T02:10:12;25.67;;;12.27;;
59607;SDS011;45426;44.726;10.390;2023-03-14T02:12:38;20.27;;;11.23;;
59607;SDS011;45426;44.726;10.390;2023-03-14T02:15:04;25.00;;;12.27;;
59607;SDS011;45426;44.726;10.390;2023-03-14T02:17:30;22.00;;;12.15;;
59607;SDS011;45426;44.726;10.390;2023-03-14T02:22:37;23.83;;;12.57;;
59607;SDS011;45426;44.726;10.390;2023-03-14T02:25:16;26.23;;;12.60;;
59607;SDS011;45426;44.726;10.390;2023-03-14T02:28:00;22.83;;;12.48;;
59607;SDS011;45426;44.726;10.390;2023-03-14T02:30:27;23.77;;;12.27;;
59607;SDS011;45426;44.726;10.390;2023-03-14T02:32:57;23.60;;;12.40;;
59607;SDS011;45426;44.726;10.390;2023-03-14T02:35:27;23.20;;;11.93;;
59607;SDS011;45426;44.726;10.390;2023-03-14T02:38:00;20.50;;;11.43;;
59607;SDS011;45426;44.726;10.390;2023-03-14T02:40:32;21.30;;;11.05;;
59607;SDS011;45426;44.726;10.390;2023-03-14T02:42:57;24.00;;;12.13;;
59607;SDS011;45426;44.726;10.390;2023-03-14T02:45:31;24.83;;;12.43;;
59607;SDS011;45426;44.726;10.390;2023-03-14T02:48:01;23.88;;;12.25;;
59607;SDS011;45426;44.726;10.390;2023-03-14T02:50:31;24.10;;;11.65;;
59607;SDS011;45426;44.726;10.390;2023-03-14T02:52:59;22.92;;;12.93;;
59607;SDS011;45426;44.726;10.390;2023-03-14T02:55:24;24.88;;;12.65;;
59607;SDS011;45426;44.726;10.390;2023-03-14T02:57:51;22.27;;;12.68;;
59607;SDS011;45426;44.726;10.390;2023-03-14T03:00:17;26.63;;;13.82;;
59607;SDS011;45426;44.726;10.390;2023-03-14T03:02:43;24.02;;;12.63;;
59607;SDS011;45426;44.726;10.390;2023-03-14T03:05:08;24.88;;;13.75;;
59607;SDS011;45426;44.726;10.390;2023-03-14T03:07:34;28.83;;;13.52;;
59607;SDS011;45426;44.726;10.390;2023-03-14T03:09:59;25.40;;;12.80;;
59607;SDS011;45426;44.726;10.390;2023-03-14T03:12:25;25.67;;;13.27;;
59607;SDS011;45426;44.726;10.390;2023-03-14T03:14:50;21.23;;;11.90;;
59607;SDS011;45426;44.726;10.390;2023-03-14T03:17:16;21.27;;;11.55;;
59607;SDS011;45426;44.726;10.390;2023-03-14T03:19:42;20.73;;;11.95;;
59607;SDS011;45426;44.726;10.390;2023-03-14T03:22:08;22.13;;;11.30;;
59607;SDS011;45426;44.726;10.390;2023-03-14T03:24:34;20.88;;;12.07;;
59607;SDS011;45426;44.726;10.390;2023-03-14T03:26:59;23.90;;;11.57;;
59607;SDS011;45426;44.726;10.390;2023-03-14T03:29:24;21.30;;;11.27;;
59607;SDS011;45426;44.726;10.390;2023-03-14T03:31:50;26.45;;;12.82;;
59607;SDS011;45426;44.726;10.390;2023-03-14T03:34:15;22.70;;;12.40;;
59607;SDS011;45426;44.726;10.390;2023-03-14T03:36:41;24.50;;;12.30;;
59607;SDS011;45426;44.726;10.390;2023-03-14T03:39:06;24.20;;;12.98;;
59607;SDS011;45426;44.726;10.390;2023-03-14T03:41:32;22.73;;;12.90;;
59607;SDS011;45426;44.726;10.390;2023-03-14T03:43:57;23.13;;;12.32;;
59607;SDS011;45426;44.726;10.390;2023-03-14T03:46:23;24.80;;;12.20;;
59607;SDS011;45426;44.726;10.390;2023-03-14T03:48:58;22.35;;;13.20;;
59607;SDS011;45426;44.726;10.390;2023-03-14T03:53:50;21.08;;;11.20;;
59607;SDS011;45426;44.726;10.390;2023-03-14T03:56:16;25.33;;;12.18;;
59607;SDS011;45426;44.726;10.390;2023-03-14T03:58:41;31.65;;;15.30;;
59607;SDS011;45426;44.726;10.390;2023-03-14T04:01:07;31.05;;;15.68;;
59607;SDS011;45426;44.726;10.390;2023-03-14T04:03:33;31.45;;;16.27;;
59607;SDS011;45426;44.726;10.390;2023-03-14T04:06:02;34.72;;;15.00;;
59607;SDS011;45426;44.726;10.390;2023-03-14T04:08:29;32.55;;;16.15;;
59607;SDS011;45426;44.726;10.390;2023-03-14T04:10:55;34.67;;;17.73;;
59607;SDS011;45426;44.726;10.390;2023-03-14T04:13:25;38.15;;;18.80;;
59607;SDS011;45426;44.726;10.390;2023-03-14T04:15:51;37.83;;;16.90;;
59607;SDS011;45426;44.726;10.390;2023-03-14T04:18:17;43.13;;;18.63;;
59607;SDS011;45426;44.726;10.390;2023-03-14T04:20:43;40.58;;;18.60;;
59607;SDS011;45426;44.726;10.390;2023-03-14T04:23:09;42.10;;;19.40;;
59607;SDS011;45426;44.726;10.390;2023-03-14T04:25:34;35.67;;;17.48;;
59607;SDS011;45426;44.726;10.390;2023-03-14T04:28:00;45.95;;;20.73;;
59607;SDS011;45426;44.726;10.390;2023-03-14T04:30:26;41.47;;;20.33;;
59607;SDS011;45426;44.726;10.390;2023-03-14T04:32:51;44.13;;;21.05;;
59607;SDS011;45426;44.726;10.390;2023-03-14T04:35:16;47.60;;;20.85;;
59607;SDS011;45426;44.726;10.390;2023-03-14T04:37:42;46.80;;;21.65;;
59607;SDS011;45426;44.726;10.390;2023-03-14T04:40:08;39.60;;;18.38;;
59607;SDS011;45426;44.726;10.390;2023-03-14T04:42:35;41.95;;;18.17;;
59607;SDS011;45426;44.726;10.390;2023-03-14T04:45:00;31.38;;;15.57;;
59607;SDS011;45426;44.726;10.390;2023-03-14T04:47:26;35.83;;;16.25;;
59607;SDS011;45426;44.726;10.390;2023-03-14T04:49:52;40.30;;;18.08;;
59607;SDS011;45426;44.726;10.390;2023-03-14T04:52:17;44.85;;;20.70;;
59607;SDS011;45426;44.726;10.390;2023-03-14T04:54:43;42.80;;;19.48;;
59607;SDS011;45426;44.726;10.390;2023-03-14T04:57:08;46.28;;;20.63;;
59607;SDS011;45426;44.726;10.390;2023-03-14T04:59:33;41.35;;;19.58;;
59607;SDS011;45426;44.726;10.390;2023-03-14T05:01:59;42.97;;;20.73;;
59607;SDS011;45426;44.726;10.390;2023-03-14T05:04:24;43.45;;;23.60;;
59607;SDS011;45426;44.726;10.390;2023-03-14T05:06:50;45.38;;;25.15;;
59607;SDS011;45426;44.726;10.390;2023-03-14T05:09:15;46.72;;;20.33;;
59607;SDS011;45426;44.726;10.390;2023-03-14T05:11:40;48.42;;;23.95;;
59607;SDS011;45426;44.726;10.390;2023-03-14T05:14:06;36.15;;;19.35;;
59607;SDS011;45426;44.726;10.390;2023-03-14T05:16:32;40.35;;;20.17;;
59607;SDS011;45426;44.726;10.390;2023-03-14T05:18:57;46.35;;;24.42;;
59607;SDS011;45426;44.726;10.390;2023-03-14T05:21:22;43.15;;;23.35;;
59607;SDS011;45426;44.726;10.390;2023-03-14T05:23:48;41.22;;;20.13;;
59607;SDS011;45426;44.726;10.390;2023-03-14T05:26:13;42.13;;;29.48;;
59607;SDS011;45426;44.726;10.390;2023-03-14T05:28:41;37.63;;;20.05;;
59607;SDS011;45426;44.726;10.390;2023-03-14T05:31:07;33.78;;;17.80;;
59607;SDS011;45426;44.726;10.390;2023-03-14T05:33:33;37.05;;;20.33;;
59607;SDS011;45426;44.726;10.390;2023-03-14T05:35:58;41.70;;;21.67;;
59607;SDS011;45426;44.726;10.390;2023-03-14T05:38:23;43.88;;;26.80;;
59607;SDS011;45426;44.726;10.390;2023-03-14T05:40:49;40.33;;;21.60;;
59607;SDS011;45426;44.726;10.390;2023-03-14T05:43:14;42.47;;;22.42;;
59607;SDS011;45426;44.726;10.390;2023-03-14T05:45:41;42.95;;;24.77;;
59607;SDS011;45426;44.726;10.390;2023-03-14T05:48:07;41.95;;;23.30;;
59607;SDS011;45426;44.726;10.390;2023-03-14T05:50:33;40.20;;;23.10;;
59607;SDS011;45426;44.726;10.390;2023-03-14T05:52:58;42.10;;;26.60;;
59607;SDS011;45426;44.726;10.390;2023-03-14T05:55:24;45.38;;;25.50;;
59607;SDS011;45426;44.726;10.390;2023-03-14T05:57:49;47.35;;;25.40;;
59607;SDS011;45426;44.726;10.390;2023-03-14T06:00:15;41.35;;;23.45;;
59607;SDS011;45426;44.726;10.390;2023-03-14T06:02:41;45.40;;;23.42;;
59607;SDS011;45426;44.726;10.390;2023-03-14T06:05:06;48.53;;;28.10;;
59607;SDS011;45426;44.726;10.390;2023-03-14T06:07:32;45.28;;;24.20;;
59607;SDS011;45426;44.726;10.390;2023-03-14T06:09:57;45.10;;;24.38;;
59607;SDS011;45426;44.726;10.390;2023-03-14T06:12:23;45.67;;;24.88;;
59607;SDS011;45426;44.726;10.390;2023-03-14T06:14:49;45.15;;;23.95;;
59607;SDS011;45426;44.726;10.390;2023-03-14T06:17:14;44.20;;;23.10;;
59607;SDS011;45426;44.726;10.390;2023-03-14T06:19:40;44.00;;;23.77;;
59607;SDS011;45426;44.726;10.390;2023-03-14T06:22:05;47.63;;;24.98;;
59607;SDS011;45426;44.726;10.390;2023-03-14T06:24:31;41.17;;;22.80;;
59607;SDS011;45426;44.726;10.390;2023-03-14T06:26:56;40.60;;;22.05;;
59607;SDS011;45426;44.726;10.390;2023-03-14T06:29:21;40.47;;;23.05;;
59607;SDS011;45426;44.726;10.390;2023-03-14T06:31:47;42.65;;;22.35;;
59607;SDS011;45426;44.726;10.390;2023-03-14T06:34:12;35.65;;;21.15;;
59607;SDS011;45426;44.726;10.390;2023-03-14T06:36:38;41.88;;;22.05;;
59607;SDS011;45426;44.726;10.390;2023-03-14T06:39:04;40.63;;;21.15;;
59607;SDS011;45426;44.726;10.390;2023-03-14T06:41:29;38.90;;;21.35;;
59607;SDS011;45426;44.726;10.390;2023-03-14T06:43:55;40.47;;;21.17;;
59607;SDS011;45426;44.726;10.390;2023-03-14T06:46:20;37.63;;;21.38;;
59607;SDS011;45426;44.726;10.390;2023-03-14T06:48:46;38.42;;;21.27;;
59607;SDS011;45426;44.726;10.390;2023-03-14T06:51:11;38.25;;;21.67;;
59607;SDS011;45426;44.726;10.390;2023-03-14T06:53:37;39.60;;;21.50;;
59607;SDS011;45426;44.726;10.390;2023-03-14T06:56:02;44.58;;;22.38;;
59607;SDS011;45426;44.726;10.390;2023-03-14T06:58:28;39.35;;;21.67;;
59607;SDS011;45426;44.726;10.390;2023-03-14T07:00:53;39.25;;;21.60;;
59607;SDS011;45426;44.726;10.390;2023-03-14T07:03:19;40.75;;;21.90;;
59607;SDS011;45426;44.726;10.390;2023-03-14T07:05:45;43.92;;;22.77;;
59607;SDS011;45426;44.726;10.390;2023-03-14T07:08:11;44.78;;;23.63;;
59607;SDS011;45426;44.726;10.390;2023-03-14T07:10:36;41.28;;;21.73;;
59607;SDS011;45426;44.726;10.390;2023-03-14T07:13:02;39.72;;;21.55;;
59607;SDS011;45426;44.726;10.390;2023-03-14T07:15:28;39.20;;;21.35;;
59607;SDS011;45426;44.726;10.390;2023-03-14T07:17:53;37.75;;;20.63;;
59607;SDS011;45426;44.726;10.390;2023-03-14T07:20:19;38.25;;;20.25;;
59607;SDS011;45426;44.726;10.390;2023-03-14T07:22:46;38.63;;;21.10;;
59607;SDS011;45426;44.726;10.390;2023-03-14T07:25:15;38.28;;;21.05;;
59607;SDS011;45426;44.726;10.390;2023-03-14T07:27:42;38.25;;;22.13;;
59607;SDS011;45426;44.726;10.390;2023-03-14T07:30:09;35.88;;;20.20;;
59607;SDS011;45426;44.726;10.390;2023-03-14T07:32:35;36.20;;;20.58;;
59607;SDS011;45426;44.726;10.390;2023-03-14T07:35:00;39.75;;;22.35;;
59607;SDS011;45426;44.726;10.390;2023-03-14T07:37:25;34.92;;;19.35;;
59607;SDS011;45426;44.726;10.390;2023-03-14T07:39:51;28.25;;;16.77;;
59607;SDS011;45426;44.726;10.390;2023-03-14T07:42:16;29.45;;;17.33;;
59607;SDS011;45426;44.726;10.390;2023-03-14T07:44:42;27.60;;;16.42;;
59607;SDS011;45426;44.726;10.390;2023-03-14T07:47:07;24.58;;;15.40;;
59607;SDS011;45426;44.726;10.390;2023-03-14T07:49:32;23.92;;;14.52;;
59607;SDS011;45426;44.726;10.390;2023-03-14T07:51:58;23.05;;;13.18;;
59607;SDS011;45426;44.726;10.390;2023-03-14T07:54:24;20.65;;;13.38;;
59607;SDS011;45426;44.726;10.390;2023-03-14T07:56:50;18.98;;;12.75;;
59607;SDS011;45426;44.726;10.390;2023-03-14T07:59:16;20.13;;;13.18;;
59607;SDS011;45426;44.726;10.390;2023-03-14T08:01:42;22.63;;;12.68;;
59607;SDS011;45426;44.726;10.390;2023-03-14T08:04:07;21.60;;;12.75;;
59607;SDS011;45426;44.726;10.390;2023-03-14T08:06:34;20.00;;;12.25;;
59607;SDS011;45426;44.726;10.390;2023-03-14T08:09:00;20.02;;;11.80;;
59607;SDS011;45426;44.726;10.390;2023-03-14T08:11:25;17.65;;;11.90;;
59607;SDS011;45426;44.726;10.390;2023-03-14T08:13:51;19.00;;;11.70;;
59607;SDS011;45426;44.726;10.390;2023-03-14T08:16:17;20.65;;;13.10;;
59607;SDS011;45426;44.726;10.390;2023-03-14T08:18:43;19.40;;;12.85;;
59607;SDS011;45426;44.726;10.390;2023-03-14T08:21:09;18.80;;;12.27;;
59607;SDS011;45426;44.726;10.390;2023-03-14T08:23:34;18.02;;;12.00;;
59607;SDS011;45426;44.726;10.390;2023-03-14T08:26:00;20.38;;;12.25;;
59607;SDS011;45426;44.726;10.390;2023-03-14T08:28:25;17.88;;;11.55;;
59607;SDS011;45426;44.726;10.390;2023-03-14T08:30:55;16.60;;;11.05;;
59607;SDS011;45426;44.726;10.390;2023-03-14T08:33:24;18.63;;;11.85;;
59607;SDS011;45426;44.726;10.390;2023-03-14T08:35:53;18.25;;;11.43;;
59607;SDS011;45426;44.726;10.390;2023-03-14T08:38:20;18.33;;;11.40;;
59607;SDS011;45426;44.726;10.390;2023-03-14T08:40:46;17.50;;;11.18;;
59607;SDS011;45426;44.726;10.390;2023-03-14T08:43:11;18.10;;;11.52;;
59607;SDS011;45426;44.726;10.390;2023-03-14T08:45:37;18.75;;;12.23;;
59607;SDS011;45426;44.726;10.390;2023-03-14T08:48:02;16.40;;;10.65;;
59607;SDS011;45426;44.726;10.390;2023-03-14T08:50:28;18.55;;;11.20;;
59607;SDS011;45426;44.726;10.390;2023-03-14T08:52:53;19.60;;;11.93;;
59607;SDS011;45426;44.726;10.390;2023-03-14T08:55:19;17.65;;;11.00;;
59607;SDS011;45426;44.726;10.390;2023-03-14T08:57:45;18.20;;;10.48;;
59607;SDS011;45426;44.726;10.390;2023-03-14T09:00:11;17.60;;;11.10;;
59607;SDS011;45426;44.726;10.390;2023-03-14T09:02:40;18.77;;;11.38;;
59607;SDS011;45426;44.726;10.390;2023-03-14T09:05:06;18.63;;;11.27;;
59607;SDS011;45426;44.726;10.390;2023-03-14T09:07:32;20.60;;;11.88;;
59607;SDS011;45426;44.726;10.390;2023-03-14T09:09:58;18.83;;;11.93;;
59607;SDS011;45426;44.726;10.390;2023-03-14T09:12:23;19.13;;;11.10;;
59607;SDS011;45426;44.726;10.390;2023-03-14T09:14:48;17.80;;;11.82;;
59607;SDS011;45426;44.726;10.390;2023-03-14T09:17:14;19.08;;;12.63;;
59607;SDS011;45426;44.726;10.390;2023-03-14T09:19:39;18.73;;;12.27;;
59607;SDS011;45426;44.726;10.390;2023-03-14T09:22:05;18.95;;;11.52;;
59607;SDS011;45426;44.726;10.390;2023-03-14T09:24:30;19.48;;;12.15;;
59607;SDS011;45426;44.726;10.390;2023-03-14T09:26:56;19.73;;;12.07;;
59607;SDS011;45426;44.726;10.390;2023-03-14T09:29:22;21.35;;;11.85;;
59607;SDS011;45426;44.726;10.390;2023-03-14T09:31:47;20.98;;;12.32;;
59607;SDS011;45426;44.726;10.390;2023-03-14T09:34:13;19.75;;;12.20;;
59607;SDS011;45426;44.726;10.390;2023-03-14T09:36:38;17.42;;;11.27;;
59607;SDS011;45426;44.726;10.390;2023-03-14T09:39:04;19.33;;;11.63;;
59607;SDS011;45426;44.726;10.390;2023-03-14T09:41:31;18.15;;;11.80;;
59607;SDS011;45426;44.726;10.390;2023-03-14T09:46:30;20.35;;;11.93;;
59607;SDS011;45426;44.726;10.390;2023-03-14T09:49:00;17.50;;;11.45;;
59607;SDS011;45426;44.726;10.390;2023-03-14T09:51:26;19.23;;;12.38;;
59607;SDS011;45426;44.726;10.390;2023-03-14T09:53:52;21.33;;;12.70;;
59607;SDS011;45426;44.726;10.390;2023-03-14T09:56:23;21.75;;;12.10;;
59607;SDS011;45426;44.726;10.390;2023-03-14T09:58:52;19.27;;;11.75;;
59607;SDS011;45426;44.726;10.390;2023-03-14T10:01:22;21.50;;;12.15;;
59607;SDS011;45426;44.726;10.390;2023-03-14T10:03:51;22.73;;;13.25;;
59607;SDS011;45426;44.726;10.390;2023-03-14T10:06:20;23.45;;;13.70;;
59607;SDS011;45426;44.726;10.390;2023-03-14T10:08:48;24.20;;;13.55;;
59607;SDS011;45426;44.726;10.390;2023-03-14T10:11:17;21.38;;;12.50;;
59607;SDS011;45426;44.726;10.390;2023-03-14T10:16:34;21.38;;;12.45;;
59607;SDS011;45426;44.726;10.390;2023-03-14T10:19:05;23.77;;;13.65;;
59607;SDS011;45426;44.726;10.390;2023-03-14T10:21:39;20.27;;;11.82;;
59607;SDS011;45426;44.726;10.390;2023-03-14T10:26:53;22.15;;;12.65;;
59607;SDS011;45426;44.726;10.390;2023-03-14T10:29:28;20.23;;;11.50;;
59607;SDS011;45426;44.726;10.390;2023-03-14T10:32:05;21.23;;;11.57;;
59607;SDS011;45426;44.726;10.390;2023-03-14T10:34:35;21.13;;;12.27;;
59607;SDS011;45426;44.726;10.390;2023-03-14T10:37:12;20.73;;;11.15;;
59607;SDS011;45426;44.726;10.390;2023-03-14T10:39:58;24.65;;;12.18;;
59607;SDS011;45426;44.726;10.390;2023-03-14T10:42:30;18.27;;;10.68;;
59607;SDS011;45426;44.726;10.390;2023-03-14T10:45:03;19.13;;;10.77;;
59607;SDS011;45426;44.726;10.390;2023-03-14T10:47:33;16.88;;;9.70;;
59607;SDS011;45426;44.726;10.390;2023-03-14T10:52:56;16.40;;;10.02;;
59607;SDS011;45426;44.726;10.390;2023-03-14T10:55:28;16.77;;;9.30;;
59607;SDS011;45426;44.726;10.390;2023-03-14T10:58:08;15.55;;;7.47;;
59607;SDS011;45426;44.726;10.390;2023-03-14T11:00:43;13.95;;;7.65;;
59607;SDS011;45426;44.726;10.390;2023-03-14T11:03:11;15.10;;;8.23;;
59607;SDS011;45426;44.726;10.390;2023-03-14T11:05:57;15.43;;;8.35;;
59607;SDS011;45426;44.726;10.390;2023-03-14T11:08:30;14.57;;;8.25;;
59607;SDS011;45426;44.726;10.390;2023-03-14T11:13:39;14.77;;;7.82;;
59607;SDS011;45426;44.726;10.390;2023-03-14T11:16:22;13.48;;;7.55;;
59607;SDS011;45426;44.726;10.390;2023-03-14T11:27:42;12.63;;;7.70;;
59607;SDS011;45426;44.726;10.390;2023-03-14T11:32:53;14.07;;;7.70;;
59607;SDS011;45426;44.726;10.390;2023-03-14T11:35:29;13.75;;;7.50;;
59607;SDS011;45426;44.726;10.390;2023-03-14T11:40:32;13.50;;;7.60;;
59607;SDS011;45426;44.726;10.390;2023-03-14T11:43:04;13.23;;;7.57;;
59607;SDS011;45426;44.726;10.390;2023-03-14T11:45:38;14.35;;;8.05;;
59607;SDS011;45426;44.726;10.390;2023-03-14T11:48:17;13.68;;;7.05;;
59607;SDS011;45426;44.726;10.390;2023-03-14T11:50:45;15.07;;;7.80;;
59607;SDS011;45426;44.726;10.390;2023-03-14T11:53:19;15.18;;;7.65;;
59607;SDS011;45426;44.726;10.390;2023-03-14T11:56:15;13.40;;;7.22;;
59607;SDS011;45426;44.726;10.390;2023-03-14T11:58:54;15.48;;;8.45;;
59607;SDS011;45426;44.726;10.390;2023-03-14T12:01:25;12.30;;;7.20;;
59607;SDS011;45426;44.726;10.390;2023-03-14T12:04:00;17.23;;;8.70;;
59607;SDS011;45426;44.726;10.390;2023-03-14T12:06:49;13.93;;;7.90;;
59607;SDS011;45426;44.726;10.390;2023-03-14T12:09:16;14.70;;;7.68;;
59607;SDS011;45426;44.726;10.390;2023-03-14T12:12:01;12.32;;;7.13;;
59607;SDS011;45426;44.726;10.390;2023-03-14T12:14:30;13.55;;;8.18;;
59607;SDS011;45426;44.726;10.390;2023-03-14T12:17:03;16.52;;;8.43;;
59607;SDS011;45426;44.726;10.390;2023-03-14T12:19:45;13.90;;;7.53;;
59607;SDS011;45426;44.726;10.390;2023-03-14T12:24:52;12.70;;;7.22;;
59607;SDS011;45426;44.726;10.390;2023-03-14T12:27:41;14.52;;;8.23;;
59607;SDS011;45426;44.726;10.390;2023-03-14T12:30:25;14.10;;;8.27;;
59607;SDS011;45426;44.726;10.390;2023-03-14T12:43:50;12.68;;;7.65;;
59607;SDS011;45426;44.726;10.390;2023-03-14T12:46:20;13.27;;;8.02;;
59607;SDS011;45426;44.726;10.390;2023-03-14T12:49:08;13.77;;;7.93;;
59607;SDS011;45426;44.726;10.390;2023-03-14T12:51:34;14.45;;;7.85;;
59607;SDS011;45426;44.726;10.390;2023-03-14T12:59:29;12.90;;;7.57;;
59607;SDS011;45426;44.726;10.390;2023-03-14T13:04:33;12.82;;;7.68;;
59607;SDS011;45426;44.726;10.390;2023-03-14T13:07:02;15.23;;;8.02;;
59607;SDS011;45426;44.726;10.390;2023-03-14T13:11:54;11.75;;;6.28;;
59607;SDS011;45426;44.726;10.390;2023-03-14T13:14:22;12.10;;;6.97;;
59607;SDS011;45426;44.726;10.390;2023-03-14T13:16:48;11.50;;;5.72;;
59607;SDS011;45426;44.726;10.390;2023-03-14T13:19:18;10.88;;;6.35;;
59607;SDS011;45426;44.726;10.390;2023-03-14T13:21:48;9.53;;;6.00;;
59607;SDS011;45426;44.726;10.390;2023-03-14T13:24:22;10.75;;;6.00;;
59607;SDS011;45426;44.726;10.390;2023-03-14T13:26:49;12.05;;;7.05;;
59607;SDS011;45426;44.726;10.390;2023-03-14T13:29:19;10.90;;;6.15;;
59607;SDS011;45426;44.726;10.390;2023-03-14T13:31:48;11.85;;;7.10;;
59607;SDS011;45426;44.726;10.390;2023-03-14T13:34:15;11.80;;;6.38;;
59607;SDS011;45426;44.726;10.390;2023-03-14T13:36:42;11.20;;;6.18;;
59607;SDS011;45426;44.726;10.390;2023-03-14T13:39:14;13.30;;;6.63;;
59607;SDS011;45426;44.726;10.390;2023-03-14T13:41:43;11.38;;;6.20;;
59607;SDS011;45426;44.726;10.390;2023-03-14T13:44:15;13.10;;;6.20;;
59607;SDS011;45426;44.726;10.390;2023-03-14T13:46:46;10.00;;;5.82;;
59607;SDS011;45426;44.726;10.390;2023-03-14T13:49:14;13.73;;;6.05;;
59607;SDS011;45426;44.726;10.390;2023-03-14T13:51:46;13.20;;;5.75;;
59607;SDS011;45426;44.726;10.390;2023-03-14T13:54:16;9.82;;;5.80;;
59607;SDS011;45426;44.726;10.390;2023-03-14T13:56:43;12.38;;;6.10;;
59607;SDS011;45426;44.726;10.390;2023-03-14T13:59:31;11.18;;;6.47;;
59607;SDS011;45426;44.726;10.390;2023-03-14T14:02:00;9.68;;;6.00;;
59607;SDS011;45426;44.726;10.390;2023-03-14T14:04:30;10.80;;;6.15;;
59607;SDS011;45426;44.726;10.390;2023-03-14T14:06:59;11.60;;;6.35;;
59607;SDS011;45426;44.726;10.390;2023-03-14T14:09:29;10.82;;;6.10;;
59607;SDS011;45426;44.726;10.390;2023-03-14T14:12:04;10.93;;;5.97;;
59607;SDS011;45426;44.726;10.390;2023-03-14T14:14:34;10.43;;;5.32;;
59607;SDS011;45426;44.726;10.390;2023-03-14T14:17:04;11.32;;;6.28;;
59607;SDS011;45426;44.726;10.390;2023-03-14T14:19:33;12.85;;;6.10;;
59607;SDS011;45426;44.726;10.390;2023-03-14T14:22:00;11.15;;;5.75;;
59607;SDS011;45426;44.726;10.390;2023-03-14T14:24:28;10.75;;;6.18;;
59607;SDS011;45426;44.726;10.390;2023-03-14T14:27:00;11.85;;;6.60;;
59607;SDS011;45426;44.726;10.390;2023-03-14T14:29:40;11.38;;;6.85;;
59607;SDS011;45426;44.726;10.390;2023-03-14T14:32:13;11.50;;;6.63;;
59607;SDS011;45426;44.726;10.390;2023-03-14T14:37:23;11.05;;;6.43;;
59607;SDS011;45426;44.726;10.390;2023-03-14T14:39:51;10.10;;;6.05;;
59607;SDS011;45426;44.726;10.390;2023-03-14T14:42:19;11.13;;;6.90;;
59607;SDS011;45426;44.726;10.390;2023-03-14T14:44:49;14.85;;;6.95;;
59607;SDS011;45426;44.726;10.390;2023-03-14T14:47:18;15.35;;;7.13;;
59607;SDS011;45426;44.726;10.390;2023-03-14T14:49:46;12.23;;;6.60;;
59607;SDS011;45426;44.726;10.390;2023-03-14T14:54:44;11.40;;;6.85;;
59607;SDS011;45426;44.726;10.390;2023-03-14T14:57:20;12.77;;;7.07;;
59607;SDS011;45426;44.726;10.390;2023-03-14T14:59:48;11.95;;;6.85;;
59607;SDS011;45426;44.726;10.390;2023-03-14T15:04:55;12.07;;;6.63;;
59607;SDS011;45426;44.726;10.390;2023-03-14T15:07:21;12.40;;;6.57;;
59607;SDS011;45426;44.726;10.390;2023-03-14T15:09:46;12.07;;;6.53;;
59607;SDS011;45426;44.726;10.390;2023-03-14T15:12:12;13.80;;;6.28;;
59607;SDS011;45426;44.726;10.390;2023-03-14T15:14:37;12.32;;;6.68;;
59607;SDS011;45426;44.726;10.390;2023-03-14T15:17:03;11.77;;;6.18;;
59607;SDS011;45426;44.726;10.390;2023-03-14T15:19:28;12.05;;;6.13;;
59607;SDS011;45426;44.726;10.390;2023-03-14T15:21:57;13.10;;;7.22;;
59607;SDS011;45426;44.726;10.390;2023-03-14T15:24:23;14.27;;;6.80;;
59607;SDS011;45426;44.726;10.390;2023-03-14T15:26:48;14.02;;;6.57;;